createdAt,value
2023-01-05T00:04:38.993Z,3.20
2023-01-05T00:15:00.584Z,2.28
2023-01-05T00:25:11.734Z,1.70
2023-01-05T00:35:18.045Z,3.10
2023-01-05T00:45:22.028Z,2.47
2023-01-05T00:55:26.422Z,1.95
2023-01-05T01:05:29.187Z,1.77
2023-01-05T01:15:33.452Z,1.98
2023-01-05T01:25:38.500Z,1.40
2023-01-05T01:35:42.879Z,1.92
2023-01-05T01:45:45.796Z,1.92
2023-01-05T01:55:51.885Z,2.33
2023-01-05T02:05:55.142Z,2.33
2023-01-05T02:16:05.885Z,3.47
2023-01-05T02:26:30.176Z,2.50
2023-01-05T02:36:40.720Z,1.77
2023-01-05T02:46:43.467Z,2.15
2023-01-05T02:56:52.837Z,2.53
2023-01-05T03:06:58.013Z,2.60
2023-01-05T03:17:02.824Z,3.90
2023-01-05T03:27:25.391Z,3.28
2023-01-05T03:37:35.109Z,2.05
2023-01-05T03:47:37.957Z,2.60
2023-01-05T03:57:42.146Z,2.05
2023-01-05T04:07:44.893Z,2.35
2023-01-05T04:17:49.115Z,1.88
2023-01-05T04:27:51.922Z,2.35
2023-01-05T04:37:55.932Z,2.72
2023-01-05T04:47:58.661Z,2.67
2023-01-05T04:58:06.893Z,2.72
2023-01-05T05:08:12.809Z,2.08
2023-01-05T05:18:16.913Z,2.63
2023-01-05T05:28:20.029Z,1.60
2023-01-05T05:38:24.182Z,4.15
2023-01-05T05:48:26.958Z,2.75
2023-01-05T05:58:31.246Z,2.17
2023-01-05T06:08:34.198Z,2.40
2023-01-05T06:18:38.243Z,2.47
2023-01-05T06:28:41.044Z,2.83
2023-01-05T06:38:45.563Z,2.80
2023-01-05T06:48:48.301Z,2.20
2023-01-05T06:58:52.514Z,2.08
2023-01-05T07:08:55.263Z,2.42
2023-01-05T07:18:59.545Z,2.45
2023-01-05T07:29:02.350Z,2.45
2023-01-05T07:39:06.669Z,2.13
2023-01-05T07:49:09.388Z,2.88
2023-01-05T07:59:13.434Z,2.63
2023-01-05T08:09:33.570Z,1.50
2023-01-05T08:19:37.679Z,1.20
2023-01-05T08:29:40.431Z,1.48
2023-01-05T08:39:44.440Z,1.77
2023-01-05T08:49:47.310Z,2.00
2023-01-05T08:59:51.414Z,1.80
2023-01-05T09:09:54.299Z,1.20
2023-01-05T09:19:58.377Z,1.08
2023-01-05T09:30:01.094Z,1.20
2023-01-05T09:40:06.105Z,1.10
2023-01-05T09:50:19.325Z,0.90
2023-01-05T10:00:24.911Z,1.27
2023-01-05T10:10:46.139Z,1.52
2023-01-05T10:21:02.589Z,0.90
2023-01-05T10:31:14.426Z,1.10
2023-01-05T10:41:26.888Z,1.55
2023-01-05T10:51:34.333Z,1.80
2023-01-05T11:01:39.233Z,1.23
2023-01-05T11:11:42.291Z,1.17
2023-01-05T11:21:47.386Z,1.67
2023-01-05T11:31:54.539Z,1.20
2023-01-05T11:42:17.482Z,1.20
2023-01-05T11:52:27.246Z,1.40
2023-01-05T12:03:03.635Z,1.27
2023-01-05T12:13:22.194Z,1.20
2023-01-05T12:23:50.885Z,2.08
2023-01-05T12:34:36.141Z,2.30
2023-01-05T12:45:12.934Z,2.30
2023-01-05T12:55:20.161Z,2.00
2023-01-05T13:05:29.992Z,1.55
2023-01-05T13:15:40.452Z,1.93
2023-01-05T13:25:51.963Z,1.75
2023-01-05T13:36:05.111Z,2.22
2023-01-05T13:46:47.290Z,1.50
2023-01-05T13:56:51.098Z,1.38
2023-01-05T14:06:58.344Z,1.25
2023-01-05T14:17:01.012Z,2.25
2023-01-05T14:27:08.244Z,2.60
2023-01-05T14:37:23.640Z,4.82
2023-01-05T14:47:44.891Z,5.50
2023-01-05T14:57:52.267Z,4.47
2023-01-05T15:08:08.573Z,3.20
2023-01-05T15:18:48.868Z,3.00
2023-01-05T15:29:24.039Z,2.38
2023-01-05T15:39:31.871Z,3.40
2023-01-05T15:49:36.058Z,2.85
2023-01-05T15:59:41.545Z,3.42
2023-01-05T16:09:48.271Z,3.88
2023-01-05T16:19:53.947Z,3.40
2023-01-05T16:30:14.885Z,3.20
2023-01-05T16:40:21.341Z,4.18
2023-01-05T16:50:53.165Z,4.20
2023-01-05T17:01:15.382Z,4.60
2023-01-05T17:11:19.490Z,6.60
2023-01-05T17:21:24.628Z,5.57
2023-01-05T17:31:29.350Z,4.60
2023-01-05T17:41:32.395Z,6.13
2023-01-05T17:51:36.659Z,5.15
2023-01-05T18:01:39.411Z,5.68
2023-01-05T18:11:43.789Z,5.05
2023-01-05T18:21:46.686Z,4.80
2023-01-05T18:31:50.819Z,5.78
2023-01-05T18:41:53.543Z,6.28
2023-01-05T18:51:57.647Z,6.95
2023-01-05T19:02:00.431Z,7.35
2023-01-05T19:12:05.060Z,7.18
2023-01-05T19:22:07.775Z,5.80
2023-01-05T19:32:12.022Z,6.13
2023-01-05T19:42:15.052Z,4.53
2023-01-05T19:52:19.089Z,5.38
2023-01-05T20:02:21.994Z,6.20
2023-01-05T20:12:26.119Z,5.82
2023-01-05T20:22:28.842Z,6.13
2023-01-05T20:32:34.728Z,6.40
2023-01-05T20:42:38.324Z,6.85
2023-01-05T20:52:42.496Z,6.82
2023-01-05T21:02:47.473Z,6.93
2023-01-05T21:12:51.825Z,7.40
2023-01-05T21:22:56.108Z,9.18
2023-01-05T21:33:00.181Z,9.45
2023-01-05T21:43:05.013Z,9.35
2023-01-05T21:53:31.999Z,9.50
2023-01-05T22:03:34.735Z,10.77
2023-01-05T22:13:40.003Z,11.93
2023-01-05T22:23:43.205Z,11.32
2023-01-05T22:33:49.315Z,11.18
2023-01-05T22:43:52.518Z,11.57
2023-01-05T22:53:57.048Z,11.20
2023-01-05T23:04:02.083Z,9.73
2023-01-05T23:14:08.278Z,11.52
2023-01-05T23:24:11.105Z,12.82
2023-01-05T23:34:15.259Z,12.60
2023-01-05T23:44:17.957Z,13.55
2023-01-05T23:54:22.070Z,12.25
